aviador You're here:

FSIA Decoded Metar

MAHE in SEYCHELLES
Report Time2017-08-22 10:00:00
UTC Time2017-08-22 11:10:25
Flight Rules Old
Wind130° at 11 kt
W.Decomp.*RWY 13: 11.0 kt HW 1.0 kt RCW
W.Rank130° ranks 3
Current wind is above 130° avg. (9.2)
Visibility9999 m
Phenomena:N/A
Clouds:Few 017 Hf
Expected CloudBase > 2,000 ft AGL from Temp-Dew spread
CeilingNone
Temp29°C (ISA +14)
Dew Point24°C (74% RH)
Heat Index33.5°C
QNH1008 hPa
Density Alt2,178 ft
Elevation10 ft
Report Wrong Elevation
Raw Report
FSIA 221000Z 13011KT 9999 FEW017 29/24 Q1008 NOSIG=

Extra information for FSIA:More info

Metar Taf Metar & Taf Last 4 Metars F.Rules Stats Wind Profile Meteogram Temp Stats Airport Information Weather charts Add Link Nearby VenuesMetar ALERT Operation Metar Decoded Social comments